Time;durP1;ratioP1;P1;durP2;ratioP2;P2;SDS_P1;SDS_P2;PMS_P1;PMS_P2;Temp;Humidity;BMP_temperature;BMP_pressure;BME280_temperature;BME280_humidity;BME280_pressure;Samples;Min_cycle;Max_cycle;Signal;HPM_P1;HPM_P2
2023/11/22 00:05:19;;;;;;;18.90;7.70;;;;;;;-1.61;100.00;101372.52;223655;1270;139488;-82
2023/11/22 00:17:13;;;;;;;24.60;9.10;;;;;;;-1.77;100.00;101390.58;223133;1267;139860;-83
2023/11/22 00:23:15;;;;;;;23.10;8.30;;;;;;;-1.83;100.00;101401.25;223784;1267;140143;-82
2023/11/22 00:29:15;;;;;;;21.80;9.10;;;;;;;-1.90;100.00;101403.27;223061;1267;140005;-81
2023/11/22 00:35:17;;;;;;;22.10;8.80;;;;;;;-1.95;100.00;101397.98;223702;1267;139564;-82
2023/11/22 00:41:18;;;;;;;19.60;8.20;;;;;;;-1.99;100.00;101401.48;223112;1267;140265;-82
2023/11/22 00:47:19;;;;;;;19.10;8.10;;;;;;;-2.06;100.00;101412.70;223069;1271;140027;-83
2023/11/22 00:53:20;;;;;;;18.20;7.10;;;;;;;-2.09;100.00;101425.77;223724;1267;139767;-82
2023/11/22 00:59:13;;;;;;;;;;;;;;;;;;;;;
2023/11/22 01:05:16;;;;;;;15.40;7.70;;;;;;;-2.20;100.00;101438.27;223700;1267;139078;-82
2023/11/22 01:11:16;;;;;;;21.20;8.60;;;;;;;-2.30;100.00;101444.45;223190;1267;139668;-82
2023/11/22 01:17:11;;;;;;;17.10;7.50;;;;;;;-2.36;100.00;101438.63;223240;1270;140143;-82
2023/11/22 01:23:12;;;;;;;19.50;8.10;;;;;;;-2.43;100.00;101447.57;223714;1267;139580;-82
2023/11/22 01:29:13;;;;;;;17.70;7.40;;;;;;;-2.47;100.00;101466.90;223260;1270;140224;-81
2023/11/22 01:35:14;;;;;;;17.70;7.40;;;;;;;-2.49;100.00;101479.56;223685;1267;139244;-82
2023/11/22 01:41:15;;;;;;;15.90;7.50;;;;;;;-2.51;100.00;101483.50;223167;1270;139977;-82
2023/11/22 01:47:15;;;;;;;18.60;7.10;;;;;;;-2.56;100.00;101484.18;223145;1267;230737;-82
2023/11/22 01:53:16;;;;;;;19.90;8.60;;;;;;;-2.62;100.00;101491.00;223696;1267;139745;-83
2023/11/22 01:59:17;;;;;;;18.10;7.30;;;;;;;-2.68;100.00;101502.45;223155;1267;139121;-82
2023/11/22 02:05:19;;;;;;;16.50;7.20;;;;;;;-2.74;100.00;101508.90;223797;1267;139735;-83
2023/11/22 02:11:22;;;;;;;15.50;7.00;;;;;;;-2.79;100.00;101522.94;223205;1268;140247;-83
2023/11/22 02:17:22;;;;;;;19.70;7.90;;;;;;;-2.86;100.00;101533.84;223220;1267;140193;-82
2023/11/22 02:23:24;;;;;;;18.40;8.50;;;;;;;-2.90;100.00;101539.27;223696;1270;139445;-82
2023/11/22 02:35:31;;;;;;;16.70;7.70;;;;;;;-2.98;100.00;101544.65;223749;1270;139001;-82
2023/11/22 02:41:31;;;;;;;18.60;8.00;;;;;;;-3.03;100.00;101542.96;223355;1270;139855;-82
2023/11/22 02:53:35;;;;;;;16.50;7.50;;;;;;;-3.12;100.00;101563.14;223746;1267;138954;-83
2023/11/22 03:05:37;;;;;;;15.90;7.70;;;;;;;-3.17;100.00;101582.98;223664;1267;139238;-82
2023/11/22 03:11:39;;;;;;;21.70;8.50;;;;;;;-3.21;100.00;101573.15;223678;1266;139111;-82
2023/11/22 03:17:41;;;;;;;20.20;8.30;;;;;;;-3.28;100.00;101573.05;223236;1267;139372;-82
2023/11/22 03:29:35;;;;;;;19.40;7.60;;;;;;;-3.40;100.00;101578.39;223178;1266;139829;-82
2023/11/22 03:35:36;;;;;;;28.10;10.70;;;;;;;-3.49;100.00;101577.73;223738;1266;138975;-82
2023/11/22 03:41:30;;;;;;;23.20;9.20;;;;;;;-3.57;100.00;101569.54;223679;1266;139686;-82
2023/11/22 03:47:25;;;;;;;20.80;8.80;;;;;;;-3.63;100.00;101574.58;223294;1267;138992;-82
2023/11/22 03:53:27;;;;;;;24.20;9.60;;;;;;;-3.69;100.00;101581.26;223741;1267;138980;-82
2023/11/22 03:59:27;;;;;;;21.70;8.70;;;;;;;-3.74;100.00;101602.09;223154;1266;139631;-82
2023/11/22 04:05:26;;;;;;;;;;;;;;;;;;;;;
2023/11/22 04:11:29;;;;;;;21.20;8.60;;;;;;;-3.78;100.00;101634.05;223396;1267;140900;-81
2023/11/22 04:23:21;;;;;;;;;;;;;;;;;;;;;
2023/11/22 04:29:19;;;;;;;;;;;;;;;;;;;;;
2023/11/22 04:35:21;;;;;;;24.40;10.20;;;;;;;-3.87;100.00;101661.91;223789;1267;139233;-82
2023/11/22 04:41:23;;;;;;;21.20;9.60;;;;;;;-3.96;100.00;101662.20;223144;1267;140436;-81
2023/11/22 04:47:23;;;;;;;21.40;9.60;;;;;;;-3.99;100.00;101682.43;223195;1266;140206;-82
2023/11/22 04:53:24;;;;;;;23.80;10.10;;;;;;;-4.03;100.00;101711.20;223637;1267;139096;-82
2023/11/22 04:59:25;;;;;;;23.60;10.80;;;;;;;-4.05;100.00;101722.95;223100;1266;139708;-82
2023/11/22 05:05:27;;;;;;;21.40;8.80;;;;;;;-4.10;100.00;101722.77;223629;1267;139205;-82
2023/11/22 05:17:26;;;;;;;;;;;;;;;;;;;;;
2023/11/22 05:23:30;;;;;;;22.10;10.30;;;;;;;-4.25;100.00;101744.08;223775;1267;139324;-82
2023/11/22 05:29:30;;;;;;;19.70;8.70;;;;;;;-4.29;100.00;101754.29;223238;1267;140065;-82
2023/11/22 05:35:32;;;;;;;24.80;10.00;;;;;;;-4.37;100.00;101745.89;223710;1267;139167;-82
2023/11/22 05:41:33;;;;;;;24.40;10.80;;;;;;;-4.44;100.00;101744.23;223473;1266;222445;-83
2023/11/22 05:47:34;;;;;;;27.60;12.50;;;;;;;-4.49;100.00;101751.48;223133;1266;139280;-82
2023/11/22 05:53:57;;;;;;;24.90;10.80;;;;;;;-4.50;100.00;101758.64;223639;1267;139103;-82
2023/11/22 05:59:39;;;;;;;21.40;9.40;;;;;;;-4.55;100.00;101769.15;223094;1266;139304;-82
2023/11/22 06:05:41;;;;;;;19.90;9.10;;;;;;;-4.60;100.00;101769.34;223725;1266;139072;-81
2023/11/22 06:11:42;;;;;;;21.40;9.60;;;;;;;-4.66;100.00;101788.52;223297;1267;367625;-80
2023/11/22 06:17:43;;;;;;;22.30;10.10;;;;;;;-4.65;100.00;101799.39;223204;1267;139622;-81
2023/11/22 06:23:44;;;;;;;23.30;10.60;;;;;;;-4.70;100.00;101797.00;223633;1266;139581;-81
2023/11/22 06:29:46;;;;;;;45.20;16.20;;;;;;;-4.75;100.00;101785.80;223136;1267;140416;-80
2023/11/22 06:35:47;;;;;;;31.30;13.80;;;;;;;-4.76;100.00;101793.20;223664;1266;139845;-82
2023/11/22 06:41:48;;;;;;;41.70;17.30;;;;;;;-4.78;100.00;101801.58;223672;1266;248632;-82
2023/11/22 06:47:50;;;;;;;37.10;15.50;;;;;;;-4.80;100.00;101802.31;223066;1267;140290;-83
2023/11/22 06:53:54;;;;;;;40.00;16.00;;;;;;;-4.79;100.00;101829.82;223741;1267;140215;-82
2023/11/22 07:00:04;;;;;;;;;;;;;;;;;;;;;
2023/11/22 07:11:58;;;;;;;29.10;13.80;;;;;;;-4.72;100.00;101872.20;223501;1267;139602;-81
2023/11/22 07:17:58;;;;;;;30.40;13.50;;;;;;;-4.66;100.00;101894.58;223153;1266;140514;-81
2023/11/22 07:23:59;;;;;;;30.70;13.00;;;;;;;-4.58;100.00;101924.70;223578;1268;139439;-80
2023/11/22 07:30:00;;;;;;;32.60;13.60;;;;;;;-4.51;100.00;101929.16;223172;1267;140093;-80
2023/11/22 07:35:41;;;;;;;;;;;;;;;;;;;;;
2023/11/22 07:41:43;;;;;;;31.20;12.40;;;;;;;-4.35;100.00;101895.16;223684;1267;139891;-81
2023/11/22 07:47:36;;;;;;;;;;;;;;;;;;;;;
2023/11/22 07:53:43;;;;;;;28.20;12.70;;;;;;;-4.16;100.00;101878.13;223682;1267;139353;-80
2023/11/22 07:59:43;;;;;;;28.40;12.60;;;;;;;-4.01;100.00;101883.31;223116;1267;140476;-80
2023/11/22 08:05:33;;;;;;;;;;;;;;;;;;;;;
2023/11/22 08:11:55;;;;;;;28.00;13.30;;;;;;;-3.67;100.00;101878.42;223415;1267;140212;-79
2023/11/22 08:17:36;;;;;;;;;;;;;;;;;;;;;
2023/11/22 08:23:30;;;;;;;;;;;;;;;;;;;;;
2023/11/22 08:29:23;;;;;;;34.40;16.40;;;;;;;-2.88;100.00;101857.23;223094;1266;140554;-78
2023/11/22 08:35:24;;;;;;;31.10;16.10;;;;;;;-2.45;100.00;101852.57;223701;1267;140054;-79
2023/11/22 08:41:25;;;;;;;32.90;15.30;;;;;;;-1.93;100.00;101842.45;223184;1267;140237;-80
2023/11/22 08:47:26;;;;;;;30.50;13.70;;;;;;;-1.57;100.00;101854.47;223332;1266;141401;-81
2023/11/22 08:53:30;;;;;;;34.30;15.10;;;;;;;-0.98;100.00;101862.82;223675;1270;139319;-79
2023/11/22 08:59:18;;;;;;;;;;;;;;;;;;;;;
2023/11/22 09:05:21;;;;;;;40.00;16.80;;;;;;;0.23;100.00;101885.52;223598;1267;138980;-79
2023/11/22 09:11:22;;;;;;;;;;;;;;;;;;;;;
2023/11/22 09:17:07;;;;;;;24.80;11.70;;;;;;;1.34;100.00;101881.31;223091;1267;140028;-81
2023/11/22 09:28:54;;;;;;;;;;;;;;;;;;;;;
2023/11/22 09:34:49;;;;;;;;;;;;;;;;;;;;;
2023/11/22 09:40:22;;;;;;;;;;;;;;;;;;;;;
2023/11/22 09:46:21;;;;;;;21.80;11.40;;;;;;;2.26;100.00;101897.16;223175;1268;161343;-82
2023/11/22 09:52:44;;;;;;;25.40;12.70;;;;;;;2.26;100.00;101907.95;223702;1267;138968;-82
2023/11/22 09:58:27;;;;;;;21.60;11.30;;;;;;;2.10;100.00;101913.27;223047;1267;139307;-81
2023/11/22 10:04:07;;;;;;;30.50;13.80;;;;;;;2.01;100.00;101918.88;223604;1268;139165;-81
2023/11/22 10:10:01;;;;;;;;;;;;;;;;;;;;;
2023/11/22 10:22:08;;;;;;;37.50;18.10;;;;;;;1.64;100.00;101885.50;223598;1268;138988;-82
2023/11/22 10:28:08;;;;;;;26.50;13.00;;;;;;;1.48;100.00;101887.84;223244;1268;138710;-81
2023/11/22 10:34:09;;;;;;;23.40;11.70;;;;;;;1.43;100.00;101876.96;223646;1267;139114;-82
2023/11/22 10:40:35;;;;;;;24.70;11.40;;;;;;;1.35;100.00;101878.77;223044;1267;139676;-82
2023/11/22 10:45:51;;;;;;;21.40;10.40;;;;;;;1.10;100.00;101896.95;223179;1267;139155;-82
2023/11/22 10:51:53;;;;;;;21.50;10.70;;;;;;;1.08;100.00;101896.59;223699;1268;139115;-83
2023/11/22 10:57:46;;;;;;;;;;;;;;;;;;;;;
2023/11/22 11:03:41;;;;;;;;;;;;;;;;;;;;;
2023/11/22 11:09:44;;;;;;;25.10;12.40;;;;;;;0.93;100.00;101875.30;223097;1268;140446;-82
2023/11/22 11:15:47;;;;;;;20.60;10.60;;;;;;;0.97;100.00;101882.70;223654;1268;139050;-81
2023/11/22 11:21:43;;;;;;;;;;;;;;;;;;;;;
2023/11/22 11:27:51;;;;;;;22.40;11.50;;;;;;;0.96;100.00;101896.16;223100;1270;140197;-82
2023/11/22 11:33:48;;;;;;;28.20;13.30;;;;;;;0.94;100.00;101905.64;223647;1269;139789;-81
2023/11/22 11:39:49;;;;;;;30.90;13.50;;;;;;;0.95;100.00;101884.67;223215;1268;139758;-81
2023/11/22 11:45:55;;;;;;;26.90;12.60;;;;;;;0.94;100.00;101876.20;223625;1267;139111;-82
2023/11/22 11:51:57;;;;;;;29.70;13.70;;;;;;;0.83;100.00;101872.19;223586;1268;139719;-80
2023/11/22 11:58:01;;;;;;;23.10;11.60;;;;;;;0.85;100.00;101874.08;223118;1267;140048;-81
2023/11/22 12:03:45;;;;;;;25.20;12.00;;;;;;;0.91;100.00;101865.60;223549;1267;139804;-81
2023/11/22 12:09:46;;;;;;;;;;;;;;;;;;;;;
2023/11/22 12:15:48;;;;;;;23.00;11.70;;;;;;;0.93;100.00;101867.21;223664;1267;139160;-80
2023/11/22 12:21:55;;;;;;;25.20;11.80;;;;;;;0.93;100.00;101859.97;223635;1268;225556;-80
2023/11/22 12:27:56;;;;;;;23.50;10.90;;;;;;;0.95;100.00;101853.06;222893;1268;139416;-80
2023/11/22 12:33:54;;;;;;;;;;;;;;;;;;;;;
2023/11/22 12:40:17;;;;;;;20.00;9.10;;;;;;;0.95;100.00;101831.48;223149;1267;139700;-80
2023/11/22 12:45:48;;;;;;;;;;;;;;;;;;;;;
2023/11/22 12:51:49;;;;;;;;;;;;;;;;;;;;;
2023/11/22 12:57:54;;;;;;;22.00;11.40;;;;;;;0.97;100.00;101831.85;222947;1267;140018;-80
2023/11/22 13:03:55;;;;;;;21.90;10.90;;;;;;;0.95;100.00;101818.41;223760;1269;139200;-81
2023/11/22 13:09:39;;;;;;;;;;;;;;;;;;;;;
2023/11/22 13:15:40;;;;;;;22.40;10.30;;;;;;;0.95;100.00;101804.77;223696;1268;139258;-82
2023/11/22 13:21:41;;;;;;;22.50;10.40;;;;;;;0.93;100.00;101844.12;223468;1266;242558;-82
2023/11/22 13:27:42;;;;;;;24.40;11.70;;;;;;;0.92;100.00;101846.79;223086;1268;140043;-80
2023/11/22 13:33:43;;;;;;;;;;;;;;;;;;;;;
2023/11/22 13:39:45;;;;;;;21.00;9.50;;;;;;;0.91;100.00;101843.97;223119;1269;139924;-80
2023/11/22 13:45:34;;;;;;;22.50;10.50;;;;;;;0.85;100.00;101832.99;223625;1270;139274;-81
2023/11/22 13:51:02;;;;;;;;;;;;;;;;;;;;;
2023/11/22 13:56:58;;;;;;;;;;;;;;;;;;;;;
2023/11/22 14:03:05;;;;;;;22.90;11.10;;;;;;;0.77;100.00;101819.21;223619;1269;139966;-81
2023/11/22 14:08:48;;;;;;;24.00;10.30;;;;;;;0.69;100.00;101828.58;223156;1267;139385;-80
2023/11/22 14:14:51;;;;;;;24.70;11.40;;;;;;;0.60;100.00;101838.45;223591;1267;138973;-81
2023/11/22 14:20:50;;;;;;;25.10;12.20;;;;;;;0.43;100.00;101857.70;223124;1267;139073;-79
2023/11/22 14:26:33;;;;;;;25.90;12.70;;;;;;;0.34;100.00;101825.99;223131;1267;139289;-80
2023/11/22 14:32:21;;;;;;;;;;;;;;;;;;;;;
2023/11/22 14:38:22;;;;;;;24.60;12.40;;;;;;;0.24;100.00;101789.20;223167;1267;140098;-81
2023/11/22 14:44:05;;;;;;;30.60;14.30;;;;;;;0.12;100.00;101785.45;223709;1267;137897;-80
2023/11/22 14:50:07;;;;;;;;;;;;;;;;;;;;;
2023/11/22 14:55:49;;;;;;;41.40;17.10;;;;;;;-0.17;100.00;101788.96;223619;1266;139234;-81
2023/11/22 15:01:53;;;;;;;48.90;21.40;;;;;;;-0.19;100.00;101783.49;223657;1267;139310;-81
2023/11/22 15:07:47;;;;;;;37.50;17.00;;;;;;;-0.25;100.00;101775.98;222842;1270;140985;-81
2023/11/22 15:13:48;;;;;;;32.90;16.60;;;;;;;-0.28;100.00;101768.53;223656;1269;139906;-82
2023/11/22 15:19:49;;;;;;;34.00;16.10;;;;;;;-0.35;100.00;101771.52;223027;1267;140332;-82
2023/11/22 15:25:47;;;;;;;33.70;15.90;;;;;;;-0.46;100.00;101797.66;223571;1266;139491;-81
2023/11/22 15:31:40;;;;;;;;;;;;;;;;;;;;;
2023/11/22 15:43:27;;;;;;;42.10;20.60;;;;;;;-0.78;100.00;101808.17;223644;1267;139299;-81
2023/11/22 15:49:28;;;;;;;39.60;20.40;;;;;;;-0.82;100.00;101808.39;223157;1268;140570;-81
2023/11/22 15:55:30;;;;;;;41.40;18.20;;;;;;;-0.88;100.00;101819.94;223791;1270;111153;-81
2023/11/22 16:01:31;;;;;;;45.60;20.50;;;;;;;-0.94;100.00;101821.44;223506;1267;139471;-82
2023/11/22 16:07:31;;;;;;;;;;;;;;;;;;;;;
2023/11/22 16:13:29;;;;;;;64.60;28.00;;;;;;;-1.08;100.00;101798.38;223733;1267;112567;-82
2023/11/22 16:25:22;;;;;;;;;;;;;;;;;;;;;
2023/11/22 16:31:13;;;;;;;;;;;;;;;;;;;;;
2023/11/22 16:36:58;;;;;;;50.10;24.60;;;;;;;-1.24;100.00;101811.96;223221;1269;140766;-82
2023/11/22 16:48:53;;;;;;;;;;;;;;;;;;;;;
2023/11/22 16:54:55;;;;;;;68.50;30.00;;;;;;;-1.34;100.00;101798.84;223615;1269;139221;-82
2023/11/22 17:00:56;;;;;;;;;;;;;;;;;;;;;
2023/11/22 17:07:23;;;;;;;43.30;20.50;;;;;;;-1.39;100.00;101760.83;223051;1267;140358;-81
2023/11/22 17:12:59;;;;;;;45.10;22.50;;;;;;;-1.39;100.00;101752.83;223555;1268;139785;-82
2023/11/22 17:24:53;;;;;;;;;;;;;;;;;;;;;
2023/11/22 17:30:45;;;;;;;54.60;25.40;;;;;;;-1.36;100.00;101744.84;223158;1267;140435;-83
2023/11/22 17:36:30;;;;;;;55.40;25.10;;;;;;;-1.34;100.00;101724.70;223167;1267;140579;-82
2023/11/22 17:42:31;;;;;;;56.50;25.50;;;;;;;-1.31;100.00;101717.46;223625;1267;139433;-82
2023/11/22 17:48:24;;;;;;;;;;;;;;;;;;;;;
2023/11/22 17:54:28;;;;;;;;;;;;;;;;;;;;;
2023/11/22 18:00:30;;;;;;;63.80;28.00;;;;;;;-1.30;100.00;101690.47;223043;1270;139414;-82
2023/11/22 18:06:32;;;;;;;61.10;29.60;;;;;;;-1.30;100.00;101680.05;223209;1267;139894;-82
2023/11/22 18:12:33;;;;;;;69.20;30.30;;;;;;;-1.29;100.00;101678.37;223575;1268;139134;-80
2023/11/22 18:18:33;;;;;;;67.50;32.70;;;;;;;-1.28;100.00;101674.91;223044;1269;140348;-81
2023/11/22 18:24:27;;;;;;;;;;;;;;;;;;;;;
2023/11/22 18:36:31;;;;;;;62.10;28.90;;;;;;;-1.28;100.00;101624.80;222963;1267;140165;-82
2023/11/22 18:42:31;;;;;;;64.40;28.80;;;;;;;-1.27;100.00;101630.73;223673;1268;139266;-81
2023/11/22 18:48:32;;;;;;;68.70;27.60;;;;;;;-1.26;100.00;101599.79;223156;1267;140016;-81
2023/11/22 18:54:22;;;;;;;75.80;31.90;;;;;;;-1.26;100.00;101601.36;223622;1267;139334;-80
2023/11/22 19:00:22;;;;;;;63.10;27.40;;;;;;;-1.26;100.00;101593.46;223256;1267;139509;-81
2023/11/22 19:06:23;;;;;;;64.20;28.60;;;;;;;-1.24;100.00;101582.13;223023;1270;163687;-82
2023/11/22 19:12:18;;;;;;;;;;;;;;;;;;;;;
2023/11/22 19:18:44;;;;;;;52.40;24.90;;;;;;;-1.22;100.00;101589.73;223124;1267;140348;-82
2023/11/22 19:24:21;;;;;;;59.30;26.10;;;;;;;-1.20;100.00;101558.34;223526;1267;139910;-81
2023/11/22 19:30:12;;;;;;;;;;;;;;;;;;;;;
2023/11/22 19:36:08;;;;;;;;;;;;;;;;;;;;;
2023/11/22 19:41:53;;;;;;;;;;;;;;;;;;;;;
2023/11/22 19:47:55;;;;;;;62.70;27.50;;;;;;;-1.21;100.00;101554.09;223284;1266;139831;-80
2023/11/22 19:53:51;;;;;;;57.00;27.10;;;;;;;-1.22;100.00;101549.83;223519;1267;139369;-80
2023/11/22 19:59:52;;;;;;;54.20;27.10;;;;;;;-1.22;100.00;101539.29;223100;1267;139713;-80
2023/11/22 20:05:46;;;;;;;;;;;;;;;;;;;;;
2023/11/22 20:11:51;;;;;;;60.30;29.10;;;;;;;-1.25;100.00;101526.88;223535;1267;223825;-81
2023/11/22 20:17:36;;;;;;;56.80;26.80;;;;;;;-1.26;100.00;101512.66;223044;1267;140237;-81
2023/11/22 20:23:27;;;;;;;61.50;28.40;;;;;;;-1.27;100.00;101505.81;223699;1266;139483;-80
2023/11/22 20:29:19;;;;;;;;;;;;;;;;;;;;;
2023/11/22 20:41:14;;;;;;;58.80;27.50;;;;;;;-1.32;100.00;101457.38;223363;1266;139879;-80
2023/11/22 20:47:08;;;;;;;;;;;;;;;;;;;;;
2023/11/22 20:53:08;;;;;;;;;;;;;;;;;;;;;
2023/11/22 20:59:02;;;;;;;;;;;;;;;;;;;;;
2023/11/22 21:05:04;;;;;;;54.20;24.10;;;;;;;-1.40;100.00;101419.54;223659;1267;139299;-81
2023/11/22 21:10:56;;;;;;;58.10;26.30;;;;;;;-1.43;100.00;101411.87;223264;1267;140599;-82
2023/11/22 21:16:40;;;;;;;61.10;30.10;;;;;;;-1.43;100.00;101409.07;223160;1266;140490;-79
2023/11/22 21:22:41;;;;;;;63.40;30.50;;;;;;;-1.45;100.00;101379.05;223720;1266;139426;-80
2023/11/22 21:28:42;;;;;;;63.10;29.60;;;;;;;-1.46;100.00;101381.77;223204;1266;139963;-80
2023/11/22 21:34:44;;;;;;;59.40;27.90;;;;;;;-1.45;100.00;101378.35;223743;1267;139294;-81
2023/11/22 21:40:45;;;;;;;56.40;29.20;;;;;;;-1.45;100.00;101368.20;216368;1266;8851069;-80
2023/11/22 21:46:45;;;;;;;61.40;28.40;;;;;;;-1.44;100.00;101348.33;223107;1266;140526;-80
2023/11/22 21:52:42;;;;;;;60.20;28.90;;;;;;;-1.44;100.00;101323.39;223705;1267;139944;-80
2023/11/22 21:58:41;;;;;;;57.40;28.80;;;;;;;-1.42;100.00;101304.69;223125;1267;139998;-82
2023/11/22 22:04:42;;;;;;;57.90;27.60;;;;;;;-1.41;100.00;101290.00;223744;1266;139372;-82
2023/11/22 22:10:45;;;;;;;53.00;26.90;;;;;;;-1.43;100.00;101269.31;223096;1267;139450;-80
2023/11/22 22:16:46;;;;;;;59.70;26.00;;;;;;;-1.42;100.00;101249.52;223157;1267;140119;-82
2023/11/22 22:22:46;;;;;;;54.90;25.70;;;;;;;-1.41;100.00;101240.70;223617;1267;140134;-82
2023/11/22 22:28:39;;;;;;;;;;;;;;;;;;;;;
2023/11/22 22:34:40;;;;;;;46.90;23.30;;;;;;;-1.40;100.00;101202.64;223626;1266;139330;-81
2023/11/22 22:40:41;;;;;;;;;;;;;;;;;;;;;
2023/11/22 22:46:42;;;;;;;;;;;;;;;;;;;;;
2023/11/22 22:52:21;;;;;;;;;;;;;;;;;;;;;
2023/11/22 22:58:21;;;;;;;;;;;;;;;;;;;;;
2023/11/22 23:04:08;;;;;;;;;;;;;;;;;;;;;
2023/11/22 23:10:00;;;;;;;;;;;;;;;;;;;;;
2023/11/22 23:16:01;;;;;;;;;;;;;;;;;;;;;
2023/11/22 23:21:53;;;;;;;46.40;21.70;;;;;;;-1.33;100.00;101130.23;223678;1266;139428;-82
2023/11/22 23:27:36;;;;;;;;;;;;;;;;;;;;;
2023/11/22 23:33:37;;;;;;;44.30;19.90;;;;;;;-1.31;100.00;101110.95;223635;1267;139363;-82
2023/11/22 23:39:37;;;;;;;42.90;20.00;;;;;;;-1.28;100.00;101094.45;223113;1267;140558;-82
2023/11/22 23:45:31;;;;;;;;;;;;;;;;;;;;;
2023/11/22 23:51:34;;;;;;;38.40;19.30;;;;;;;-1.25;100.00;101068.55;223633;1266;140041;-82
2023/11/22 23:57:35;;;;;;;45.40;21.20;;;;;;;-1.20;100.00;101058.78;223246;1266;140471;-81
